sensor_id;sensor_type;location;lat;lon;timestamp;temperature;humidity
10352;DHT22;5222;49.324;8.420;2022-08-01T00:01:32;29.10;75.20
10352;DHT22;5222;49.324;8.420;2022-08-01T00:03:59;29.10;75.20
10352;DHT22;5222;49.324;8.420;2022-08-01T00:06:25;29.00;75.30
10352;DHT22;5222;49.324;8.420;2022-08-01T00:08:52;29.10;75.30
10352;DHT22;5222;49.324;8.420;2022-08-01T00:11:19;29.10;75.40
10352;DHT22;5222;49.324;8.420;2022-08-01T00:13:47;28.90;75.60
10352;DHT22;5222;49.324;8.420;2022-08-01T00:16:14;28.80;76.10
10352;DHT22;5222;49.324;8.420;2022-08-01T00:18:41;28.80;76.30
10352;DHT22;5222;49.324;8.420;2022-08-01T00:21:08;28.80;76.90
10352;DHT22;5222;49.324;8.420;2022-08-01T00:23:34;28.80;76.90
10352;DHT22;5222;49.324;8.420;2022-08-01T00:26:02;28.90;77.00
10352;DHT22;5222;49.324;8.420;2022-08-01T00:28:29;28.90;76.90
10352;DHT22;5222;49.324;8.420;2022-08-01T00:30:57;28.90;76.90
10352;DHT22;5222;49.324;8.420;2022-08-01T00:33:23;28.80;77.30
10352;DHT22;5222;49.324;8.420;2022-08-01T00:35:50;28.90;77.20
10352;DHT22;5222;49.324;8.420;2022-08-01T00:38:17;28.80;77.10
10352;DHT22;5222;49.324;8.420;2022-08-01T00:40:43;28.80;77.40
10352;DHT22;5222;49.324;8.420;2022-08-01T00:43:10;28.80;77.20
10352;DHT22;5222;49.324;8.420;2022-08-01T00:45:37;28.80;77.60
10352;DHT22;5222;49.324;8.420;2022-08-01T00:48:05;28.70;77.90
10352;DHT22;5222;49.324;8.420;2022-08-01T00:50:32;28.40;78.70
10352;DHT22;5222;49.324;8.420;2022-08-01T00:53:00;28.20;79.10
10352;DHT22;5222;49.324;8.420;2022-08-01T00:55:27;28.10;79.60
10352;DHT22;5222;49.324;8.420;2022-08-01T00:57:55;27.90;80.20
10352;DHT22;5222;49.324;8.420;2022-08-01T01:00:22;27.90;80.30
10352;DHT22;5222;49.324;8.420;2022-08-01T01:02:49;27.80;80.70
10352;DHT22;5222;49.324;8.420;2022-08-01T01:05:17;27.70;81.10
10352;DHT22;5222;49.324;8.420;2022-08-01T01:07:48;27.70;80.90
10352;DHT22;5222;49.324;8.420;2022-08-01T01:10:21;27.70;80.90
10352;DHT22;5222;49.324;8.420;2022-08-01T01:12:58;27.80;81.10
10352;DHT22;5222;49.324;8.420;2022-08-01T01:15:29;27.80;80.70
10352;DHT22;5222;49.324;8.420;2022-08-01T01:17:59;27.90;80.40
10352;DHT22;5222;49.324;8.420;2022-08-01T01:20:30;27.90;80.50
10352;DHT22;5222;49.324;8.420;2022-08-01T01:23:10;27.80;80.90
10352;DHT22;5222;49.324;8.420;2022-08-01T01:25:53;27.70;81.20
10352;DHT22;5222;49.324;8.420;2022-08-01T01:28:32;27.60;81.80
10352;DHT22;5222;49.324;8.420;2022-08-01T01:31:02;27.40;82.50
10352;DHT22;5222;49.324;8.420;2022-08-01T01:33:32;27.40;82.40
10352;DHT22;5222;49.324;8.420;2022-08-01T01:36:02;27.40;82.20
10352;DHT22;5222;49.324;8.420;2022-08-01T01:38:36;27.50;82.20
10352;DHT22;5222;49.324;8.420;2022-08-01T01:41:08;27.50;82.50
10352;DHT22;5222;49.324;8.420;2022-08-01T01:43:37;27.50;82.50
10352;DHT22;5222;49.324;8.420;2022-08-01T01:46:06;27.50;82.60
10352;DHT22;5222;49.324;8.420;2022-08-01T01:48:34;27.50;82.70
10352;DHT22;5222;49.324;8.420;2022-08-01T01:51:02;27.50;82.60
10352;DHT22;5222;49.324;8.420;2022-08-01T01:53:32;27.60;82.80
10352;DHT22;5222;49.324;8.420;2022-08-01T01:56:00;27.60;82.50
10352;DHT22;5222;49.324;8.420;2022-08-01T01:58:28;27.60;82.80
10352;DHT22;5222;49.324;8.420;2022-08-01T02:00:59;27.50;82.80
10352;DHT22;5222;49.324;8.420;2022-08-01T02:03:28;27.40;83.60
10352;DHT22;5222;49.324;8.420;2022-08-01T02:05:56;27.30;83.60
10352;DHT22;5222;49.324;8.420;2022-08-01T02:08:24;27.20;84.00
10352;DHT22;5222;49.324;8.420;2022-08-01T02:10:53;27.20;83.80
10352;DHT22;5222;49.324;8.420;2022-08-01T02:13:40;27.20;84.10
10352;DHT22;5222;49.324;8.420;2022-08-01T02:16:09;27.10;84.30
10352;DHT22;5222;49.324;8.420;2022-08-01T02:18:38;27.00;84.70
10352;DHT22;5222;49.324;8.420;2022-08-01T02:21:09;26.90;85.20
10352;DHT22;5222;49.324;8.420;2022-08-01T02:23:38;26.80;85.30
10352;DHT22;5222;49.324;8.420;2022-08-01T02:26:09;26.90;85.50
10352;DHT22;5222;49.324;8.420;2022-08-01T02:28:43;26.90;85.30
10352;DHT22;5222;49.324;8.420;2022-08-01T02:31:13;26.90;85.30
10352;DHT22;5222;49.324;8.420;2022-08-01T02:33:57;26.90;85.20
10352;DHT22;5222;49.324;8.420;2022-08-01T02:36:26;26.80;85.40
10352;DHT22;5222;49.324;8.420;2022-08-01T02:38:55;26.60;86.10
10352;DHT22;5222;49.324;8.420;2022-08-01T02:41:25;26.50;86.30
10352;DHT22;5222;49.324;8.420;2022-08-01T02:43:55;26.60;86.00
10352;DHT22;5222;49.324;8.420;2022-08-01T02:46:30;26.70;86.00
10352;DHT22;5222;49.324;8.420;2022-08-01T02:49:01;26.70;85.90
10352;DHT22;5222;49.324;8.420;2022-08-01T02:51:30;26.70;85.90
10352;DHT22;5222;49.324;8.420;2022-08-01T02:53:59;26.70;86.10
10352;DHT22;5222;49.324;8.420;2022-08-01T02:56:27;26.70;86.10
10352;DHT22;5222;49.324;8.420;2022-08-01T02:59:02;26.70;85.90
10352;DHT22;5222;49.324;8.420;2022-08-01T03:01:31;26.70;85.70
10352;DHT22;5222;49.324;8.420;2022-08-01T03:03:59;26.80;85.30
10352;DHT22;5222;49.324;8.420;2022-08-01T03:06:27;26.80;85.60
10352;DHT22;5222;49.324;8.420;2022-08-01T03:08:55;26.90;85.20
10352;DHT22;5222;49.324;8.420;2022-08-01T03:11:24;26.90;85.20
10352;DHT22;5222;49.324;8.420;2022-08-01T03:13:53;26.90;85.40
10352;DHT22;5222;49.324;8.420;2022-08-01T03:16:21;26.80;85.70
10352;DHT22;5222;49.324;8.420;2022-08-01T03:18:51;26.70;86.10
10352;DHT22;5222;49.324;8.420;2022-08-01T03:21:20;26.70;86.30
10352;DHT22;5222;49.324;8.420;2022-08-01T03:23:49;26.70;86.50
10352;DHT22;5222;49.324;8.420;2022-08-01T03:26:18;26.70;86.40
10352;DHT22;5222;49.324;8.420;2022-08-01T03:28:46;26.60;86.60
10352;DHT22;5222;49.324;8.420;2022-08-01T03:31:15;26.60;86.50
10352;DHT22;5222;49.324;8.420;2022-08-01T03:33:42;26.50;86.50
10352;DHT22;5222;49.324;8.420;2022-08-01T03:36:10;26.60;86.60
10352;DHT22;5222;49.324;8.420;2022-08-01T03:38:40;26.60;86.40
10352;DHT22;5222;49.324;8.420;2022-08-01T03:41:11;26.60;86.70
10352;DHT22;5222;49.324;8.420;2022-08-01T03:43:42;26.50;86.80
10352;DHT22;5222;49.324;8.420;2022-08-01T03:46:19;26.50;87.00
10352;DHT22;5222;49.324;8.420;2022-08-01T03:48:48;26.50;87.00
10352;DHT22;5222;49.324;8.420;2022-08-01T03:51:18;26.50;87.20
10352;DHT22;5222;49.324;8.420;2022-08-01T03:53:48;26.50;87.10
10352;DHT22;5222;49.324;8.420;2022-08-01T03:56:18;26.40;87.30
10352;DHT22;5222;49.324;8.420;2022-08-01T03:58:46;26.40;87.60
10352;DHT22;5222;49.324;8.420;2022-08-01T04:01:13;26.40;87.80
10352;DHT22;5222;49.324;8.420;2022-08-01T04:03:41;26.30;88.10
10352;DHT22;5222;49.324;8.420;2022-08-01T04:06:07;26.20;88.20
10352;DHT22;5222;49.324;8.420;2022-08-01T04:08:36;26.20;88.10
10352;DHT22;5222;49.324;8.420;2022-08-01T04:11:04;26.20;88.40
10352;DHT22;5222;49.324;8.420;2022-08-01T04:13:31;26.20;88.50
10352;DHT22;5222;49.324;8.420;2022-08-01T04:15:59;26.10;88.90
10352;DHT22;5222;49.324;8.420;2022-08-01T04:18:25;26.00;89.30
10352;DHT22;5222;49.324;8.420;2022-08-01T04:20:52;25.90;89.60
10352;DHT22;5222;49.324;8.420;2022-08-01T04:23:22;25.90;89.40
10352;DHT22;5222;49.324;8.420;2022-08-01T04:25:51;26.00;89.40
10352;DHT22;5222;49.324;8.420;2022-08-01T04:28:22;26.00;89.70
10352;DHT22;5222;49.324;8.420;2022-08-01T04:30:50;26.00;89.60
10352;DHT22;5222;49.324;8.420;2022-08-01T04:33:19;25.90;89.90
10352;DHT22;5222;49.324;8.420;2022-08-01T04:35:47;26.00;89.90
10352;DHT22;5222;49.324;8.420;2022-08-01T04:38:19;26.00;89.80
10352;DHT22;5222;49.324;8.420;2022-08-01T04:40:47;25.90;90.00
10352;DHT22;5222;49.324;8.420;2022-08-01T04:43:16;25.90;90.00
10352;DHT22;5222;49.324;8.420;2022-08-01T04:45:46;26.00;90.00
10352;DHT22;5222;49.324;8.420;2022-08-01T04:48:15;25.90;90.20
10352;DHT22;5222;49.324;8.420;2022-08-01T04:50:45;25.80;90.50
10352;DHT22;5222;49.324;8.420;2022-08-01T04:53:13;25.80;90.70
10352;DHT22;5222;49.324;8.420;2022-08-01T04:55:42;25.80;90.90
10352;DHT22;5222;49.324;8.420;2022-08-01T04:58:09;25.70;91.00
10352;DHT22;5222;49.324;8.420;2022-08-01T05:00:36;25.70;90.70
10352;DHT22;5222;49.324;8.420;2022-08-01T05:03:04;25.70;90.90
10352;DHT22;5222;49.324;8.420;2022-08-01T05:05:33;25.80;90.40
10352;DHT22;5222;49.324;8.420;2022-08-01T05:08:00;25.90;90.30
10352;DHT22;5222;49.324;8.420;2022-08-01T05:10:27;26.00;90.20
10352;DHT22;5222;49.324;8.420;2022-08-01T05:12:54;26.00;89.90
10352;DHT22;5222;49.324;8.420;2022-08-01T05:15:21;26.20;89.70
10352;DHT22;5222;49.324;8.420;2022-08-01T05:17:48;26.40;89.40
10352;DHT22;5222;49.324;8.420;2022-08-01T05:20:16;26.50;88.60
10352;DHT22;5222;49.324;8.420;2022-08-01T05:22:43;26.60;88.80
10352;DHT22;5222;49.324;8.420;2022-08-01T05:25:10;26.80;88.20
10352;DHT22;5222;49.324;8.420;2022-08-01T05:27:36;27.10;87.70
10352;DHT22;5222;49.324;8.420;2022-08-01T05:30:06;27.30;87.20
10352;DHT22;5222;49.324;8.420;2022-08-01T05:32:33;27.50;86.80
10352;DHT22;5222;49.324;8.420;2022-08-01T05:35:00;27.80;86.10
10352;DHT22;5222;49.324;8.420;2022-08-01T05:37:28;28.10;85.50
10352;DHT22;5222;49.324;8.420;2022-08-01T05:39:55;28.30;84.90
10352;DHT22;5222;49.324;8.420;2022-08-01T05:42:22;28.40;84.50
10352;DHT22;5222;49.324;8.420;2022-08-01T05:44:49;28.60;84.20
10352;DHT22;5222;49.324;8.420;2022-08-01T05:47:16;28.80;84.00
10352;DHT22;5222;49.324;8.420;2022-08-01T05:49:42;28.90;83.50
10352;DHT22;5222;49.324;8.420;2022-08-01T05:52:10;29.10;83.60
10352;DHT22;5222;49.324;8.420;2022-08-01T05:54:38;29.30;82.70
10352;DHT22;5222;49.324;8.420;2022-08-01T05:57:05;29.60;82.30
10352;DHT22;5222;49.324;8.420;2022-08-01T05:59:31;29.90;81.60
10352;DHT22;5222;49.324;8.420;2022-08-01T06:01:58;30.20;81.10
10352;DHT22;5222;49.324;8.420;2022-08-01T06:04:25;30.40;80.50
10352;DHT22;5222;49.324;8.420;2022-08-01T06:06:52;30.80;79.40
10352;DHT22;5222;49.324;8.420;2022-08-01T06:09:18;30.90;79.30
10352;DHT22;5222;49.324;8.420;2022-08-01T06:11:46;30.90;78.90
10352;DHT22;5222;49.324;8.420;2022-08-01T06:14:13;31.00;78.50
10352;DHT22;5222;49.324;8.420;2022-08-01T06:16:40;31.20;78.50
10352;DHT22;5222;49.324;8.420;2022-08-01T06:19:07;31.20;78.00
10352;DHT22;5222;49.324;8.420;2022-08-01T06:21:33;31.40;77.80
10352;DHT22;5222;49.324;8.420;2022-08-01T06:24:00;31.50;77.50
10352;DHT22;5222;49.324;8.420;2022-08-01T06:26:27;31.70;76.70
10352;DHT22;5222;49.324;8.420;2022-08-01T06:28:55;31.60;76.80
10352;DHT22;5222;49.324;8.420;2022-08-01T06:31:21;31.30;77.10
10352;DHT22;5222;49.324;8.420;2022-08-01T06:33:48;31.00;78.00
10352;DHT22;5222;49.324;8.420;2022-08-01T06:36:15;30.90;78.20
10352;DHT22;5222;49.324;8.420;2022-08-01T06:38:41;30.90;78.30
10352;DHT22;5222;49.324;8.420;2022-08-01T06:41:08;31.10;78.00
10352;DHT22;5222;49.324;8.420;2022-08-01T06:43:35;30.90;77.60
10352;DHT22;5222;49.324;8.420;2022-08-01T06:46:03;30.90;77.60
10352;DHT22;5222;49.324;8.420;2022-08-01T06:48:30;30.40;78.40
10352;DHT22;5222;49.324;8.420;2022-08-01T06:50:57;30.10;79.20
10352;DHT22;5222;49.324;8.420;2022-08-01T06:53:34;29.90;79.50
10352;DHT22;5222;49.324;8.420;2022-08-01T06:56:01;30.10;79.60
10352;DHT22;5222;49.324;8.420;2022-08-01T06:58:28;30.00;79.70
10352;DHT22;5222;49.324;8.420;2022-08-01T07:00:55;30.00;79.80
10352;DHT22;5222;49.324;8.420;2022-08-01T07:03:23;30.30;79.40
10352;DHT22;5222;49.324;8.420;2022-08-01T07:05:49;30.50;79.10
10352;DHT22;5222;49.324;8.420;2022-08-01T07:08:16;30.90;78.10
10352;DHT22;5222;49.324;8.420;2022-08-01T07:10:43;31.50;77.40
10352;DHT22;5222;49.324;8.420;2022-08-01T07:13:09;31.60;76.30
10352;DHT22;5222;49.324;8.420;2022-08-01T07:15:37;32.00;75.30
10352;DHT22;5222;49.324;8.420;2022-08-01T07:18:04;32.10;75.10
10352;DHT22;5222;49.324;8.420;2022-08-01T07:20:32;32.00;75.00
10352;DHT22;5222;49.324;8.420;2022-08-01T07:22:59;31.90;75.40
10352;DHT22;5222;49.324;8.420;2022-08-01T07:25:26;32.20;75.20
10352;DHT22;5222;49.324;8.420;2022-08-01T07:27:52;32.60;74.20
10352;DHT22;5222;49.324;8.420;2022-08-01T07:30:19;32.90;73.90
10352;DHT22;5222;49.324;8.420;2022-08-01T07:32:46;32.90;73.70
10352;DHT22;5222;49.324;8.420;2022-08-01T07:35:12;32.90;73.30
10352;DHT22;5222;49.324;8.420;2022-08-01T07:37:40;32.90;73.30
10352;DHT22;5222;49.324;8.420;2022-08-01T07:40:08;33.30;72.60
10352;DHT22;5222;49.324;8.420;2022-08-01T07:42:35;33.80;71.90
10352;DHT22;5222;49.324;8.420;2022-08-01T07:45:02;34.30;70.90
10352;DHT22;5222;49.324;8.420;2022-08-01T07:47:29;34.60;70.20
10352;DHT22;5222;49.324;8.420;2022-08-01T07:49:59;34.80;70.30
10352;DHT22;5222;49.324;8.420;2022-08-01T07:52:26;34.80;70.30
10352;DHT22;5222;49.324;8.420;2022-08-01T07:54:54;34.40;70.90
10352;DHT22;5222;49.324;8.420;2022-08-01T07:57:22;34.30;71.00
10352;DHT22;5222;49.324;8.420;2022-08-01T07:59:48;34.00;71.80
10352;DHT22;5222;49.324;8.420;2022-08-01T08:02:15;33.50;72.70
10352;DHT22;5222;49.324;8.420;2022-08-01T08:04:42;33.20;73.30
10352;DHT22;5222;49.324;8.420;2022-08-01T08:07:09;33.60;72.90
10352;DHT22;5222;49.324;8.420;2022-08-01T08:09:36;34.10;71.90
10352;DHT22;5222;49.324;8.420;2022-08-01T08:12:05;34.60;70.80
10352;DHT22;5222;49.324;8.420;2022-08-01T08:14:32;34.90;70.40
10352;DHT22;5222;49.324;8.420;2022-08-01T08:16:59;35.20;70.10
10352;DHT22;5222;49.324;8.420;2022-08-01T08:19:26;34.90;70.10
10352;DHT22;5222;49.324;8.420;2022-08-01T08:21:52;34.80;70.80
10352;DHT22;5222;49.324;8.420;2022-08-01T08:24:19;34.40;71.00
10352;DHT22;5222;49.324;8.420;2022-08-01T08:26:48;34.10;71.70
10352;DHT22;5222;49.324;8.420;2022-08-01T08:29:16;34.00;71.50
10352;DHT22;5222;49.324;8.420;2022-08-01T08:31:43;34.00;71.00
10352;DHT22;5222;49.324;8.420;2022-08-01T08:34:10;34.10;71.10
10352;DHT22;5222;49.324;8.420;2022-08-01T08:36:37;34.50;70.20
10352;DHT22;5222;49.324;8.420;2022-08-01T08:39:04;34.50;70.20
10352;DHT22;5222;49.324;8.420;2022-08-01T08:41:31;34.50;70.30
10352;DHT22;5222;49.324;8.420;2022-08-01T08:44:00;34.70;70.70
10352;DHT22;5222;49.324;8.420;2022-08-01T08:46:28;34.90;70.60
10352;DHT22;5222;49.324;8.420;2022-08-01T08:49:00;34.30;70.40
10352;DHT22;5222;49.324;8.420;2022-08-01T08:51:30;34.10;70.90
10352;DHT22;5222;49.324;8.420;2022-08-01T08:53:58;34.30;71.00
10352;DHT22;5222;49.324;8.420;2022-08-01T08:56:25;33.90;70.70
10352;DHT22;5222;49.324;8.420;2022-08-01T08:58:55;33.50;71.40
10352;DHT22;5222;49.324;8.420;2022-08-01T09:01:23;34.00;71.50
10352;DHT22;5222;49.324;8.420;2022-08-01T09:03:51;34.40;70.60
10352;DHT22;5222;49.324;8.420;2022-08-01T09:06:18;34.60;69.80
10352;DHT22;5222;49.324;8.420;2022-08-01T09:08:45;34.80;69.30
10352;DHT22;5222;49.324;8.420;2022-08-01T09:11:12;34.80;69.10
10352;DHT22;5222;49.324;8.420;2022-08-01T09:13:39;34.40;70.50
10352;DHT22;5222;49.324;8.420;2022-08-01T09:16:06;34.00;71.70
10352;DHT22;5222;49.324;8.420;2022-08-01T09:18:34;33.90;71.40
10352;DHT22;5222;49.324;8.420;2022-08-01T09:21:11;33.50;72.20
10352;DHT22;5222;49.324;8.420;2022-08-01T09:23:40;33.30;72.00
10352;DHT22;5222;49.324;8.420;2022-08-01T09:26:08;33.10;72.40
10352;DHT22;5222;49.324;8.420;2022-08-01T09:28:35;33.40;72.10
10352;DHT22;5222;49.324;8.420;2022-08-01T09:31:06;33.40;71.90
10352;DHT22;5222;49.324;8.420;2022-08-01T09:33:52;33.30;71.30
10352;DHT22;5222;49.324;8.420;2022-08-01T09:36:23;33.20;72.10
10352;DHT22;5222;49.324;8.420;2022-08-01T09:38:51;33.10;72.50
10352;DHT22;5222;49.324;8.420;2022-08-01T09:41:28;33.00;72.90
10352;DHT22;5222;49.324;8.420;2022-08-01T09:43:56;32.90;72.90
10352;DHT22;5222;49.324;8.420;2022-08-01T09:46:24;33.00;72.60
10352;DHT22;5222;49.324;8.420;2022-08-01T09:48:59;33.10;72.90
10352;DHT22;5222;49.324;8.420;2022-08-01T09:51:32;33.20;72.40
10352;DHT22;5222;49.324;8.420;2022-08-01T09:54:00;33.40;72.30
10352;DHT22;5222;49.324;8.420;2022-08-01T09:56:36;33.60;71.30
10352;DHT22;5222;49.324;8.420;2022-08-01T09:59:04;33.90;70.90
10352;DHT22;5222;49.324;8.420;2022-08-01T10:01:43;34.00;70.80
10352;DHT22;5222;49.324;8.420;2022-08-01T10:04:13;34.10;70.50
10352;DHT22;5222;49.324;8.420;2022-08-01T10:06:43;34.10;70.80
10352;DHT22;5222;49.324;8.420;2022-08-01T10:09:12;34.20;71.00
10352;DHT22;5222;49.324;8.420;2022-08-01T10:11:41;34.30;70.20
10352;DHT22;5222;49.324;8.420;2022-08-01T10:14:08;34.40;69.90
10352;DHT22;5222;49.324;8.420;2022-08-01T10:16:35;34.50;69.70
10352;DHT22;5222;49.324;8.420;2022-08-01T10:19:02;34.50;69.60
10352;DHT22;5222;49.324;8.420;2022-08-01T10:21:32;34.30;70.30
10352;DHT22;5222;49.324;8.420;2022-08-01T10:24:02;34.30;69.90
10352;DHT22;5222;49.324;8.420;2022-08-01T10:26:32;34.30;70.00
10352;DHT22;5222;49.324;8.420;2022-08-01T10:29:00;34.40;69.90
10352;DHT22;5222;49.324;8.420;2022-08-01T10:31:29;34.30;69.80
10352;DHT22;5222;49.324;8.420;2022-08-01T10:33:58;34.20;70.70
10352;DHT22;5222;49.324;8.420;2022-08-01T10:36:25;34.00;70.70
10352;DHT22;5222;49.324;8.420;2022-08-01T10:38:53;33.60;71.90
10352;DHT22;5222;49.324;8.420;2022-08-01T10:41:22;33.50;72.10
10352;DHT22;5222;49.324;8.420;2022-08-01T10:43:51;33.50;71.30
10352;DHT22;5222;49.324;8.420;2022-08-01T10:46:19;33.50;71.30
10352;DHT22;5222;49.324;8.420;2022-08-01T10:48:51;33.60;71.60
10352;DHT22;5222;49.324;8.420;2022-08-01T10:51:21;33.60;71.30
10352;DHT22;5222;49.324;8.420;2022-08-01T10:53:51;33.70;71.00
10352;DHT22;5222;49.324;8.420;2022-08-01T10:56:18;33.80;72.00
10352;DHT22;5222;49.324;8.420;2022-08-01T10:58:48;33.60;71.60
10352;DHT22;5222;49.324;8.420;2022-08-01T11:01:17;33.50;72.00
10352;DHT22;5222;49.324;8.420;2022-08-01T11:03:55;33.40;71.80
10352;DHT22;5222;49.324;8.420;2022-08-01T11:06:24;33.30;73.00
10352;DHT22;5222;49.324;8.420;2022-08-01T11:08:53;33.00;72.70
10352;DHT22;5222;49.324;8.420;2022-08-01T11:11:21;32.70;73.20
10352;DHT22;5222;49.324;8.420;2022-08-01T11:14:05;32.70;73.30
10352;DHT22;5222;49.324;8.420;2022-08-01T11:16:38;32.90;72.90
10352;DHT22;5222;49.324;8.420;2022-08-01T11:19:06;33.10;72.90
10352;DHT22;5222;49.324;8.420;2022-08-01T11:22:07;33.20;72.40
10352;DHT22;5222;49.324;8.420;2022-08-01T11:24:55;33.60;72.30
10352;DHT22;5222;49.324;8.420;2022-08-01T11:27:28;34.00;71.00
10352;DHT22;5222;49.324;8.420;2022-08-01T11:30:24;34.40;70.80
10352;DHT22;5222;49.324;8.420;2022-08-01T11:32:53;34.90;69.30
10352;DHT22;5222;49.324;8.420;2022-08-01T11:35:21;35.20;69.20
10352;DHT22;5222;49.324;8.420;2022-08-01T11:37:52;35.40;68.80
10352;DHT22;5222;49.324;8.420;2022-08-01T11:40:22;35.70;68.30
10352;DHT22;5222;49.324;8.420;2022-08-01T11:42:50;35.60;68.30
10352;DHT22;5222;49.324;8.420;2022-08-01T11:45:17;35.40;68.20
10352;DHT22;5222;49.324;8.420;2022-08-01T11:47:46;35.20;68.90
10352;DHT22;5222;49.324;8.420;2022-08-01T11:50:33;35.40;68.70
10352;DHT22;5222;49.324;8.420;2022-08-01T11:53:02;35.70;68.00
10352;DHT22;5222;49.324;8.420;2022-08-01T11:55:30;36.10;67.20
10352;DHT22;5222;49.324;8.420;2022-08-01T11:58:01;36.20;66.50
10352;DHT22;5222;49.324;8.420;2022-08-01T12:00:29;35.90;66.70
10352;DHT22;5222;49.324;8.420;2022-08-01T12:03:00;36.00;67.00
10352;DHT22;5222;49.324;8.420;2022-08-01T12:05:29;36.30;66.40
10352;DHT22;5222;49.324;8.420;2022-08-01T12:07:57;36.60;66.70
10352;DHT22;5222;49.324;8.420;2022-08-01T12:10:26;36.80;65.40
10352;DHT22;5222;49.324;8.420;2022-08-01T12:12:56;37.00;65.50
10352;DHT22;5222;49.324;8.420;2022-08-01T12:15:30;37.30;64.70
10352;DHT22;5222;49.324;8.420;2022-08-01T12:18:00;37.30;64.00
10352;DHT22;5222;49.324;8.420;2022-08-01T12:20:28;37.20;63.90
10352;DHT22;5222;49.324;8.420;2022-08-01T12:22:56;37.40;64.90
10352;DHT22;5222;49.324;8.420;2022-08-01T12:25:23;37.50;63.20
10352;DHT22;5222;49.324;8.420;2022-08-01T12:27:50;37.50;63.60
10352;DHT22;5222;49.324;8.420;2022-08-01T12:30:19;37.90;63.50
10352;DHT22;5222;49.324;8.420;2022-08-01T12:32:48;38.20;62.60
10352;DHT22;5222;49.324;8.420;2022-08-01T12:35:18;38.70;62.70
10352;DHT22;5222;49.324;8.420;2022-08-01T12:37:46;38.60;62.00
10352;DHT22;5222;49.324;8.420;2022-08-01T12:40:18;38.20;62.30
10352;DHT22;5222;49.324;8.420;2022-08-01T12:42:47;38.10;62.30
10352;DHT22;5222;49.324;8.420;2022-08-01T12:45:16;38.30;61.50
10352;DHT22;5222;49.324;8.420;2022-08-01T12:47:44;38.00;62.10
10352;DHT22;5222;49.324;8.420;2022-08-01T12:50:16;38.00;62.50
10352;DHT22;5222;49.324;8.420;2022-08-01T12:52:43;37.90;62.60
10352;DHT22;5222;49.324;8.420;2022-08-01T12:55:13;37.70;63.00
10352;DHT22;5222;49.324;8.420;2022-08-01T12:57:42;38.10;62.70
10352;DHT22;5222;49.324;8.420;2022-08-01T13:00:17;38.70;61.60
10352;DHT22;5222;49.324;8.420;2022-08-01T13:02:45;39.20;60.70
10352;DHT22;5222;49.324;8.420;2022-08-01T13:05:12;39.10;60.00
10352;DHT22;5222;49.324;8.420;2022-08-01T13:07:47;39.10;59.80
10352;DHT22;5222;49.324;8.420;2022-08-01T13:10:23;39.00;60.10
10352;DHT22;5222;49.324;8.420;2022-08-01T13:12:52;38.90;60.50
10352;DHT22;5222;49.324;8.420;2022-08-01T13:15:25;38.60;61.00
10352;DHT22;5222;49.324;8.420;2022-08-01T13:17:53;38.10;62.00
10352;DHT22;5222;49.324;8.420;2022-08-01T13:20:31;37.30;63.40
10352;DHT22;5222;49.324;8.420;2022-08-01T13:23:15;37.20;64.60
10352;DHT22;5222;49.324;8.420;2022-08-01T13:25:51;37.30;64.50
10352;DHT22;5222;49.324;8.420;2022-08-01T13:28:19;37.10;65.50
10352;DHT22;5222;49.324;8.420;2022-08-01T13:30:57;37.00;65.60
10352;DHT22;5222;49.324;8.420;2022-08-01T13:33:25;37.00;65.30
10352;DHT22;5222;49.324;8.420;2022-08-01T13:35:53;36.80;64.60
10352;DHT22;5222;49.324;8.420;2022-08-01T13:38:22;36.80;64.90
10352;DHT22;5222;49.324;8.420;2022-08-01T13:41:09;36.80;65.00
10352;DHT22;5222;49.324;8.420;2022-08-01T13:43:36;36.40;65.30
10352;DHT22;5222;49.324;8.420;2022-08-01T13:46:02;36.10;65.50
10352;DHT22;5222;49.324;8.420;2022-08-01T13:48:31;35.90;66.20
10352;DHT22;5222;49.324;8.420;2022-08-01T13:50:58;35.80;66.90
10352;DHT22;5222;49.324;8.420;2022-08-01T13:53:26;36.00;65.90
10352;DHT22;5222;49.324;8.420;2022-08-01T13:55:53;35.90;66.10
10352;DHT22;5222;49.324;8.420;2022-08-01T13:58:20;35.40;66.50
10352;DHT22;5222;49.324;8.420;2022-08-01T14:00:47;35.40;66.80
10352;DHT22;5222;49.324;8.420;2022-08-01T14:03:14;35.40;66.20
10352;DHT22;5222;49.324;8.420;2022-08-01T14:05:42;35.10;65.90
10352;DHT22;5222;49.324;8.420;2022-08-01T14:08:09;35.10;65.70
10352;DHT22;5222;49.324;8.420;2022-08-01T14:10:37;35.00;66.00
10352;DHT22;5222;49.324;8.420;2022-08-01T14:13:04;34.60;65.90
10352;DHT22;5222;49.324;8.420;2022-08-01T14:15:31;34.90;65.60
10352;DHT22;5222;49.324;8.420;2022-08-01T14:17:58;34.90;65.70
10352;DHT22;5222;49.324;8.420;2022-08-01T14:20:25;35.00;65.60
10352;DHT22;5222;49.324;8.420;2022-08-01T14:22:52;35.20;65.20
10352;DHT22;5222;49.324;8.420;2022-08-01T14:25:19;35.10;65.10
10352;DHT22;5222;49.324;8.420;2022-08-01T14:27:47;35.00;65.70
10352;DHT22;5222;49.324;8.420;2022-08-01T14:30:14;34.80;65.10
10352;DHT22;5222;49.324;8.420;2022-08-01T14:32:41;34.60;65.30
10352;DHT22;5222;49.324;8.420;2022-08-01T14:35:08;34.50;65.80
10352;DHT22;5222;49.324;8.420;2022-08-01T14:37:34;34.60;66.50
10352;DHT22;5222;49.324;8.420;2022-08-01T14:40:02;34.40;66.60
10352;DHT22;5222;49.324;8.420;2022-08-01T14:42:34;34.40;66.70
10352;DHT22;5222;49.324;8.420;2022-08-01T14:45:03;34.40;66.70
10352;DHT22;5222;49.324;8.420;2022-08-01T14:47:34;34.30;66.60
10352;DHT22;5222;49.324;8.420;2022-08-01T14:50:01;34.40;66.20
10352;DHT22;5222;49.324;8.420;2022-08-01T14:52:28;34.40;66.60
10352;DHT22;5222;49.324;8.420;2022-08-01T14:54:55;34.30;67.10
10352;DHT22;5222;49.324;8.420;2022-08-01T14:57:22;33.80;67.70
10352;DHT22;5222;49.324;8.420;2022-08-01T14:59:49;33.70;67.90
10352;DHT22;5222;49.324;8.420;2022-08-01T15:02:17;33.70;68.40
10352;DHT22;5222;49.324;8.420;2022-08-01T15:04:44;33.80;68.10
10352;DHT22;5222;49.324;8.420;2022-08-01T15:07:11;33.90;68.30
10352;DHT22;5222;49.324;8.420;2022-08-01T15:09:38;33.70;67.80
10352;DHT22;5222;49.324;8.420;2022-08-01T15:12:05;33.60;68.60
10352;DHT22;5222;49.324;8.420;2022-08-01T15:14:32;33.70;68.50
10352;DHT22;5222;49.324;8.420;2022-08-01T15:17:14;33.60;68.80
10352;DHT22;5222;49.324;8.420;2022-08-01T15:19:42;33.70;68.80
10352;DHT22;5222;49.324;8.420;2022-08-01T15:22:09;33.70;69.20
10352;DHT22;5222;49.324;8.420;2022-08-01T15:24:36;33.80;69.20
10352;DHT22;5222;49.324;8.420;2022-08-01T15:27:04;33.80;69.00
10352;DHT22;5222;49.324;8.420;2022-08-01T15:29:31;33.80;69.00
10352;DHT22;5222;49.324;8.420;2022-08-01T15:31:58;33.70;68.70
10352;DHT22;5222;49.324;8.420;2022-08-01T15:34:25;33.80;68.80
10352;DHT22;5222;49.324;8.420;2022-08-01T15:36:53;33.60;69.20
10352;DHT22;5222;49.324;8.420;2022-08-01T15:39:20;33.70;69.00
10352;DHT22;5222;49.324;8.420;2022-08-01T15:41:47;33.90;68.50
10352;DHT22;5222;49.324;8.420;2022-08-01T15:44:13;33.90;68.90
10352;DHT22;5222;49.324;8.420;2022-08-01T15:46:40;33.80;68.60
10352;DHT22;5222;49.324;8.420;2022-08-01T15:49:07;33.60;68.90
10352;DHT22;5222;49.324;8.420;2022-08-01T15:51:34;33.60;68.90
10352;DHT22;5222;49.324;8.420;2022-08-01T15:54:02;33.60;69.20
10352;DHT22;5222;49.324;8.420;2022-08-01T15:56:31;33.50;69.60